createdAt,value
2022-11-14T00:00:33.089Z,15.90
2022-11-14T00:03:19.920Z,14.70
2022-11-14T00:06:07.364Z,16.30
2022-11-14T00:08:53.817Z,15.20
2022-11-14T00:11:40.515Z,13.30
2022-11-14T00:14:27.486Z,15.10
2022-11-14T00:17:14.216Z,14.80
2022-11-14T00:20:01.452Z,11.90
2022-11-14T00:22:48.531Z,14.00
2022-11-14T00:25:35.317Z,16.10
2022-11-14T00:28:22.210Z,16.60
2022-11-14T00:31:10.521Z,15.00
2022-11-14T00:33:57.716Z,13.30
2022-11-14T00:36:44.410Z,16.70
2022-11-14T00:39:31.011Z,12.30
2022-11-14T00:42:17.916Z,14.80
2022-11-14T00:45:05.179Z,17.40
2022-11-14T00:47:52.071Z,19.00
2022-11-14T00:50:39.133Z,19.60
2022-11-14T00:53:25.714Z,20.30
2022-11-14T00:56:12.538Z,17.70
2022-11-14T00:58:59.391Z,14.00
2022-11-14T01:01:46.315Z,18.50
2022-11-14T01:04:33.238Z,18.90
2022-11-14T01:07:20.262Z,14.70
2022-11-14T01:10:07.965Z,14.50
2022-11-14T01:12:54.468Z,16.90
2022-11-14T01:15:46.068Z,14.60
2022-11-14T01:18:33.681Z,17.30
2022-11-14T01:21:20.335Z,13.40
2022-11-14T01:24:07.299Z,18.40
2022-11-14T01:26:57.037Z,14.10
2022-11-14T01:29:43.721Z,11.50
2022-11-14T01:32:30.627Z,14.60
2022-11-14T01:35:17.521Z,12.70
2022-11-14T01:38:06.122Z,14.60
2022-11-14T01:40:52.694Z,13.50
2022-11-14T01:43:40.838Z,12.60
2022-11-14T01:46:38.746Z,15.30
2022-11-14T01:49:30.775Z,12.20
2022-11-14T01:52:36.709Z,9.90
2022-11-14T01:55:23.761Z,12.60
2022-11-14T01:58:11.005Z,11.70
2022-11-14T02:00:58.667Z,13.50
2022-11-14T02:03:50.296Z,10.80
2022-11-14T02:06:38.342Z,12.90
2022-11-14T02:09:26.454Z,11.70
2022-11-14T02:12:16.035Z,13.90
2022-11-14T02:15:03.426Z,12.90
2022-11-14T02:17:50.433Z,14.70
2022-11-14T02:20:43.280Z,9.70
2022-11-14T02:23:32.824Z,9.70
2022-11-14T02:26:21.963Z,14.30
2022-11-14T02:29:10.829Z,12.00
2022-11-14T02:31:57.587Z,12.70
2022-11-14T02:34:44.314Z,8.00
2022-11-14T02:37:30.926Z,13.30
2022-11-14T02:40:18.011Z,8.40
2022-11-14T02:43:04.894Z,11.70
2022-11-14T02:45:51.626Z,10.10
2022-11-14T02:48:38.240Z,8.10
2022-11-14T02:51:25.724Z,10.20
2022-11-14T02:54:12.347Z,13.00
2022-11-14T02:56:59.255Z,11.60
2022-11-14T02:59:46.542Z,12.50
2022-11-14T03:02:33.405Z,10.40
2022-11-14T03:05:20.436Z,7.30
2022-11-14T03:08:07.332Z,10.10
2022-11-14T03:10:54.815Z,7.30
2022-11-14T03:13:41.766Z,10.70
2022-11-14T03:16:28.377Z,11.50
2022-11-14T03:19:15.060Z,11.90
2022-11-14T03:22:01.904Z,11.40
2022-11-14T03:24:49.057Z,11.90
2022-11-14T03:27:36.081Z,10.50
2022-11-14T03:30:23.098Z,9.10
2022-11-14T03:33:09.696Z,12.20
2022-11-14T03:35:56.581Z,11.20
2022-11-14T03:38:44.202Z,11.70
2022-11-14T03:41:31.105Z,8.10
2022-11-14T03:44:18.138Z,9.70
2022-11-14T03:47:05.323Z,11.20
2022-11-14T03:49:52.220Z,9.20
2022-11-14T03:52:39.029Z,9.30
2022-11-14T03:55:26.240Z,7.00
2022-11-14T03:58:13.378Z,10.50
2022-11-14T04:01:00.546Z,8.80
2022-11-14T04:03:47.620Z,8.30
2022-11-14T04:06:34.022Z,6.80
2022-11-14T04:09:20.776Z,8.50
2022-11-14T04:12:11.335Z,9.00
2022-11-14T04:15:02.179Z,5.70
2022-11-14T04:17:48.963Z,8.10
2022-11-14T04:20:35.807Z,8.50
2022-11-14T04:23:22.738Z,8.50
2022-11-14T04:26:09.512Z,7.60
2022-11-14T04:28:56.208Z,8.00
2022-11-14T04:31:43.156Z,6.40
2022-11-14T04:34:29.941Z,12.40
2022-11-14T04:37:16.773Z,8.90
2022-11-14T04:40:04.435Z,6.30
2022-11-14T04:42:50.929Z,7.50
2022-11-14T04:45:37.704Z,7.50
2022-11-14T04:48:24.608Z,7.50
2022-11-14T04:51:11.383Z,10.00
2022-11-14T04:53:58.060Z,7.30
2022-11-14T04:56:45.063Z,8.80
2022-11-14T04:59:32.196Z,6.70
2022-11-14T05:02:19.161Z,6.50
2022-11-14T05:05:06.332Z,7.40
2022-11-14T05:07:54.769Z,7.80
2022-11-14T05:10:45.438Z,8.20
2022-11-14T05:13:32.286Z,10.50
2022-11-14T05:16:19.102Z,8.40
2022-11-14T05:19:06.102Z,7.20
2022-11-14T05:21:52.864Z,7.30
2022-11-14T05:24:39.743Z,7.20
2022-11-14T05:27:26.888Z,8.60
2022-11-14T05:30:14.798Z,8.60
2022-11-14T05:33:01.971Z,11.80
2022-11-14T05:35:48.793Z,11.70
2022-11-14T05:38:35.970Z,8.00
2022-11-14T05:41:22.790Z,8.30
2022-11-14T05:44:09.972Z,9.50
2022-11-14T05:46:57.021Z,9.30
2022-11-14T05:49:43.659Z,13.10
2022-11-14T05:52:31.603Z,8.80
2022-11-14T05:55:24.416Z,10.30
2022-11-14T05:58:12.447Z,9.70
2022-11-14T06:01:26.004Z,8.70
2022-11-14T06:04:14.968Z,8.70
2022-11-14T06:07:01.472Z,11.40
2022-11-14T06:09:48.537Z,12.40
2022-11-14T06:12:35.865Z,8.50
2022-11-14T06:15:22.549Z,8.50
2022-11-14T06:18:09.324Z,9.60
2022-11-14T06:21:07.535Z,8.20
2022-11-14T06:23:54.135Z,14.60
2022-11-14T06:26:41.426Z,8.30
2022-11-14T06:29:31.388Z,11.90
2022-11-14T06:32:22.239Z,8.00
2022-11-14T06:35:09.461Z,7.60
2022-11-14T06:37:56.604Z,8.40
2022-11-14T06:40:43.178Z,9.40
2022-11-14T06:43:33.268Z,10.50
2022-11-14T06:46:22.401Z,9.80
2022-11-14T06:49:09.103Z,10.00
2022-11-14T06:51:55.748Z,8.90
2022-11-14T06:54:42.540Z,10.60
2022-11-14T06:57:29.367Z,9.40
2022-11-14T07:00:16.528Z,9.90
2022-11-14T07:03:04.215Z,9.90
2022-11-14T07:05:51.071Z,10.50
2022-11-14T07:08:38.505Z,9.30
2022-11-14T07:11:29.704Z,8.50
2022-11-14T07:14:16.487Z,10.10
2022-11-14T07:17:03.629Z,8.50
2022-11-14T07:19:50.320Z,9.00
2022-11-14T07:22:37.297Z,9.70
2022-11-14T07:25:24.121Z,10.40
2022-11-14T07:28:11.255Z,11.70
2022-11-14T07:30:58.197Z,14.30
2022-11-14T07:33:46.008Z,18.70
2022-11-14T07:36:32.944Z,9.80
2022-11-14T07:39:19.707Z,9.20
2022-11-14T07:42:06.537Z,9.00
2022-11-14T07:44:53.431Z,6.80
2022-11-14T07:47:40.194Z,9.10
2022-11-14T07:50:28.850Z,10.40
2022-11-14T07:53:17.864Z,12.30
2022-11-14T07:56:09.942Z,9.80
2022-11-14T07:58:56.942Z,13.00
2022-11-14T08:01:43.775Z,13.60
2022-11-14T08:04:30.679Z,15.00
2022-11-14T08:07:17.771Z,12.20
2022-11-14T08:10:06.464Z,16.30
2022-11-14T08:13:25.314Z,14.80
2022-11-14T08:16:13.384Z,22.80
2022-11-14T08:19:01.285Z,16.90
2022-11-14T08:21:48.068Z,19.10
2022-11-14T08:24:34.722Z,15.30
2022-11-14T08:27:21.346Z,14.20
2022-11-14T08:30:09.110Z,11.60
2022-11-14T08:32:55.842Z,14.30
2022-11-14T08:35:43.049Z,15.70
2022-11-14T08:38:32.133Z,12.80
2022-11-14T08:41:19.209Z,12.00
2022-11-14T08:44:06.223Z,14.50
2022-11-14T08:46:53.286Z,15.40
2022-11-14T08:49:40.097Z,20.30
2022-11-14T08:52:27.129Z,19.50
2022-11-14T08:55:14.128Z,44.50
2022-11-14T08:58:00.985Z,35.30
2022-11-14T09:00:47.942Z,18.60
2022-11-14T09:03:34.946Z,19.40
2022-11-14T09:06:22.097Z,14.70
2022-11-14T09:09:08.998Z,15.40
2022-11-14T09:11:55.603Z,16.10
2022-11-14T09:14:42.153Z,15.90
2022-11-14T09:17:28.669Z,16.70
2022-11-14T09:20:15.593Z,20.00
2022-11-14T09:23:03.204Z,17.60
2022-11-14T09:25:49.647Z,15.30
2022-11-14T09:28:37.200Z,13.40
2022-11-14T09:31:24.533Z,13.40
2022-11-14T09:34:11.365Z,17.00
2022-11-14T09:36:58.846Z,14.70
2022-11-14T09:39:46.259Z,18.20
2022-11-14T09:42:45.148Z,16.70
2022-11-14T09:45:35.568Z,15.90
2022-11-14T09:48:28.100Z,16.50
2022-11-14T09:51:20.281Z,17.10
2022-11-14T09:54:12.402Z,15.00
2022-11-14T09:57:00.545Z,13.80
2022-11-14T09:59:48.062Z,14.90
2022-11-14T10:02:41.517Z,12.80
2022-11-14T10:05:57.656Z,10.70
2022-11-14T10:09:05.290Z,13.20
2022-11-14T10:12:04.961Z,11.10
2022-11-14T10:15:07.281Z,10.60
2022-11-14T10:17:57.076Z,12.60
2022-11-14T10:21:08.084Z,11.80
2022-11-14T10:24:35.871Z,9.30
2022-11-14T10:27:28.210Z,10.40
2022-11-14T10:30:17.287Z,8.90
2022-11-14T10:33:28.305Z,9.00
2022-11-14T10:36:25.651Z,9.30
2022-11-14T10:39:26.889Z,9.20
2022-11-14T10:42:22.357Z,8.70
2022-11-14T10:45:18.099Z,10.10
2022-11-14T10:48:16.535Z,9.80
2022-11-14T10:51:08.663Z,9.40
2022-11-14T10:54:10.702Z,9.60
2022-11-14T10:56:57.724Z,11.40
2022-11-14T10:59:44.866Z,7.60
2022-11-14T11:02:54.851Z,8.40
2022-11-14T11:05:50.856Z,9.20
2022-11-14T11:09:01.682Z,7.10
2022-11-14T11:11:58.221Z,7.80
2022-11-14T11:14:46.795Z,9.80
2022-11-14T11:17:38.804Z,8.90
2022-11-14T11:20:39.092Z,10.50
2022-11-14T11:23:28.069Z,8.70
2022-11-14T11:26:20.831Z,8.90
2022-11-14T11:29:16.931Z,10.80
2022-11-14T11:32:03.994Z,8.10
2022-11-14T11:34:51.697Z,18.10
2022-11-14T11:37:55.109Z,12.50
2022-11-14T11:40:44.662Z,53.50
2022-11-14T11:44:06.177Z,43.50
2022-11-14T11:47:02.591Z,14.30
2022-11-14T11:49:54.137Z,14.10
2022-11-14T11:52:50.926Z,11.90
2022-11-14T11:56:03.857Z,12.40
2022-11-14T11:59:21.934Z,12.80
2022-11-14T12:02:21.116Z,9.40
2022-11-14T12:05:14.974Z,11.50
2022-11-14T12:08:26.958Z,8.70
2022-11-14T12:11:24.985Z,10.00
2022-11-14T12:14:37.954Z,9.70
2022-11-14T12:17:38.181Z,11.70
2022-11-14T12:20:43.783Z,13.30
2022-11-14T12:24:01.670Z,9.20
2022-11-14T12:27:24.693Z,8.90
2022-11-14T12:30:23.245Z,13.50
2022-11-14T12:33:19.423Z,13.60
2022-11-14T12:36:10.985Z,11.40
2022-11-14T12:38:59.408Z,9.70
2022-11-14T12:41:46.350Z,9.90
2022-11-14T12:44:36.125Z,9.00
2022-11-14T12:47:26.046Z,15.70
2022-11-14T12:50:39.891Z,16.20
2022-11-14T12:53:36.210Z,8.70
2022-11-14T12:56:29.515Z,10.90
2022-11-14T12:59:30.510Z,11.10
2022-11-14T13:02:43.480Z,7.20
2022-11-14T13:05:33.372Z,10.20
2022-11-14T13:08:58.771Z,10.20
2022-11-14T13:12:06.972Z,9.90
2022-11-14T13:15:14.829Z,12.00
2022-11-14T13:18:40.830Z,9.10
2022-11-14T13:21:46.470Z,12.90
2022-11-14T13:25:09.629Z,11.00
2022-11-14T13:28:07.516Z,10.80
2022-11-14T13:31:17.674Z,14.90
2022-11-14T13:34:29.457Z,14.70
2022-11-14T13:37:35.097Z,16.80
2022-11-14T13:40:55.011Z,13.50
2022-11-14T13:44:23.260Z,12.50
2022-11-14T13:47:47.841Z,12.10
2022-11-14T13:50:43.492Z,13.00
2022-11-14T13:53:32.258Z,15.50
2022-11-14T13:56:43.026Z,15.20
2022-11-14T13:59:46.603Z,13.40
2022-11-14T14:02:53.803Z,16.70
2022-11-14T14:06:05.893Z,12.60
2022-11-14T14:09:13.810Z,13.00
2022-11-14T14:12:07.925Z,13.20
2022-11-14T14:15:13.034Z,13.90
2022-11-14T14:18:21.177Z,12.40
2022-11-14T14:21:32.345Z,15.70
2022-11-14T14:24:50.537Z,17.30
2022-11-14T14:27:53.895Z,12.40
2022-11-14T14:30:40.733Z,27.70
2022-11-14T14:33:27.841Z,20.40
2022-11-14T14:36:23.880Z,19.80
2022-11-14T14:39:20.156Z,19.60
2022-11-14T14:42:11.478Z,21.90
2022-11-14T14:44:58.906Z,15.00
2022-11-14T14:47:49.866Z,15.10
2022-11-14T14:50:42.581Z,12.50
2022-11-14T14:53:32.081Z,14.20
2022-11-14T14:56:22.216Z,11.80
2022-11-14T14:59:17.594Z,14.80
2022-11-14T15:02:11.333Z,15.80
2022-11-14T15:05:00.194Z,13.00
2022-11-14T15:07:49.646Z,13.50
2022-11-14T15:10:37.060Z,12.50
2022-11-14T15:13:25.291Z,17.30
2022-11-14T15:16:12.853Z,16.30
2022-11-14T15:19:00.877Z,16.40
2022-11-14T15:22:11.000Z,16.70
2022-11-14T15:25:27.207Z,17.80
2022-11-14T15:28:17.899Z,18.40
2022-11-14T15:31:05.453Z,15.00
2022-11-14T15:34:04.880Z,12.30
2022-11-14T15:37:10.577Z,15.80
2022-11-14T15:40:21.196Z,16.20
2022-11-14T15:43:37.103Z,15.50
2022-11-14T15:46:36.012Z,18.70
2022-11-14T15:49:27.939Z,13.80
2022-11-14T15:52:25.643Z,19.30
2022-11-14T15:55:18.681Z,17.20
2022-11-14T15:58:29.266Z,16.80
2022-11-14T16:01:24.150Z,18.00
2022-11-14T16:04:32.894Z,21.90
2022-11-14T16:07:20.359Z,18.20
2022-11-14T16:10:19.205Z,18.10
2022-11-14T16:13:06.277Z,18.50
2022-11-14T16:15:52.990Z,19.00
2022-11-14T16:18:39.904Z,15.50
2022-11-14T16:21:26.878Z,15.00
2022-11-14T16:24:17.163Z,13.20
2022-11-14T16:27:04.123Z,23.10
2022-11-14T16:29:52.505Z,19.20
2022-11-14T16:32:40.744Z,16.40
2022-11-14T16:35:28.159Z,13.70
2022-11-14T16:38:15.014Z,20.90
2022-11-14T16:41:01.675Z,15.00
2022-11-14T16:43:48.518Z,14.20
2022-11-14T16:46:35.500Z,18.90
2022-11-14T16:49:22.424Z,23.90
2022-11-14T16:52:10.984Z,21.70
2022-11-14T16:54:58.440Z,25.20
2022-11-14T16:57:45.720Z,32.40
2022-11-14T17:00:32.399Z,30.60
2022-11-14T17:03:19.107Z,45.90
2022-11-14T17:06:08.590Z,49.90
2022-11-14T17:08:56.502Z,48.80
2022-11-14T17:11:44.845Z,61.90
2022-11-14T17:14:31.756Z,59.70
2022-11-14T17:17:18.699Z,65.40
2022-11-14T17:20:06.051Z,65.20
2022-11-14T17:22:52.949Z,50.20
2022-11-14T17:25:39.797Z,45.70
2022-11-14T17:28:26.701Z,50.50
2022-11-14T17:31:13.574Z,54.60
2022-11-14T17:34:01.315Z,61.90
2022-11-14T17:36:48.450Z,51.50
2022-11-14T17:39:35.292Z,49.90
2022-11-14T17:42:21.997Z,57.40
2022-11-14T17:45:09.197Z,51.30
2022-11-14T17:47:56.360Z,45.60
2022-11-14T17:50:44.079Z,52.30
2022-11-14T17:53:36.157Z,67.80
2022-11-14T17:56:25.547Z,69.00
2022-11-14T17:59:12.406Z,60.90
2022-11-14T18:02:02.335Z,50.40
2022-11-14T18:04:49.248Z,51.40
2022-11-14T18:07:36.096Z,55.80
2022-11-14T18:10:22.860Z,72.70
2022-11-14T18:13:10.463Z,113.00
2022-11-14T18:16:06.620Z,94.30
2022-11-14T18:18:53.808Z,84.30
2022-11-14T18:21:43.291Z,68.70
2022-11-14T18:24:30.047Z,69.40
2022-11-14T18:27:16.911Z,77.70
2022-11-14T18:30:26.697Z,72.40
2022-11-14T18:33:11.438Z,76.30
2022-11-14T18:36:02.568Z,71.60
2022-11-14T18:38:49.761Z,62.40
2022-11-14T18:41:36.754Z,66.10
2022-11-14T18:44:25.007Z,58.50
2022-11-14T18:47:12.075Z,59.10
2022-11-14T18:50:00.171Z,77.60
2022-11-14T18:52:47.255Z,60.10
2022-11-14T18:55:38.490Z,59.50
2022-11-14T18:58:25.680Z,49.60
2022-11-14T19:01:12.363Z,60.10
2022-11-14T19:04:01.923Z,59.20
2022-11-14T19:06:48.803Z,60.50
2022-11-14T19:09:35.789Z,60.80
2022-11-14T19:12:23.661Z,50.80
2022-11-14T19:15:11.407Z,56.90
2022-11-14T19:17:58.366Z,49.90
2022-11-14T19:20:55.286Z,60.70
2022-11-14T19:23:41.858Z,47.30
2022-11-14T19:26:29.991Z,57.40
2022-11-14T19:29:17.144Z,84.90
2022-11-14T19:32:04.338Z,60.00
2022-11-14T19:34:50.819Z,58.30
2022-11-14T19:37:44.639Z,65.80
2022-11-14T19:40:31.536Z,64.60
2022-11-14T19:43:18.975Z,37.70
2022-11-14T19:46:06.702Z,28.00
2022-11-14T19:49:00.548Z,43.60
2022-11-14T19:51:47.391Z,53.90
2022-11-14T19:54:34.278Z,43.80
2022-11-14T19:57:21.636Z,43.00
2022-11-14T20:00:08.931Z,47.00
2022-11-14T20:02:55.952Z,32.00
2022-11-14T20:05:42.757Z,36.70
2022-11-14T20:08:29.669Z,36.80
2022-11-14T20:11:17.638Z,34.10
2022-11-14T20:14:05.767Z,41.10
2022-11-14T20:16:52.711Z,36.60
2022-11-14T20:19:39.771Z,45.60
2022-11-14T20:22:26.696Z,50.80
2022-11-14T20:25:15.880Z,41.20
2022-11-14T20:28:02.943Z,32.90
2022-11-14T20:30:49.733Z,39.20
2022-11-14T20:33:38.936Z,34.80
2022-11-14T20:36:31.912Z,27.50
2022-11-14T20:39:23.108Z,37.40
2022-11-14T20:42:09.960Z,48.80
2022-11-14T20:44:56.854Z,34.90
2022-11-14T20:47:43.804Z,40.50
2022-11-14T20:50:30.747Z,54.20
2022-11-14T20:53:17.323Z,53.30
2022-11-14T20:56:04.517Z,67.20
2022-11-14T20:58:52.359Z,54.30
2022-11-14T21:01:43.461Z,66.90
2022-11-14T21:04:30.763Z,58.80
2022-11-14T21:07:17.637Z,50.70
2022-11-14T21:10:31.248Z,18.10
2022-11-14T21:13:39.589Z,36.70
2022-11-14T21:16:39.426Z,42.30
2022-11-14T21:19:29.379Z,43.70
2022-11-14T21:22:15.971Z,30.40
2022-11-14T21:25:04.047Z,39.00
2022-11-14T21:27:51.357Z,42.00
2022-11-14T21:30:38.231Z,20.50
2022-11-14T21:33:31.765Z,32.80
2022-11-14T21:36:43.786Z,25.20
2022-11-14T21:39:27.211Z,24.80
2022-11-14T21:42:18.244Z,22.20
2022-11-14T21:45:07.197Z,22.50
2022-11-14T21:47:54.024Z,23.40
2022-11-14T21:50:40.940Z,24.90
2022-11-14T21:53:28.606Z,27.20
2022-11-14T21:56:18.756Z,22.50
2022-11-14T21:59:13.234Z,22.30
2022-11-14T22:02:19.208Z,25.40
2022-11-14T22:05:06.667Z,20.90
2022-11-14T22:07:53.444Z,24.20
2022-11-14T22:10:40.206Z,22.10
2022-11-14T22:13:29.905Z,23.50
2022-11-14T22:16:21.056Z,23.80
2022-11-14T22:19:08.350Z,26.30
2022-11-14T22:21:54.864Z,29.30
2022-11-14T22:24:41.480Z,28.10
2022-11-14T22:27:28.391Z,33.20
2022-11-14T22:30:15.394Z,28.10
2022-11-14T22:33:02.368Z,28.20
2022-11-14T22:35:49.179Z,27.70
2022-11-14T22:38:37.671Z,22.70
2022-11-14T22:41:32.609Z,31.80
2022-11-14T22:44:20.326Z,31.00
2022-11-14T22:47:07.077Z,29.70
2022-11-14T22:49:54.033Z,25.50
2022-11-14T22:52:41.055Z,24.10
2022-11-14T22:55:28.007Z,31.90
2022-11-14T22:58:15.049Z,29.20
2022-11-14T23:01:02.652Z,32.90
2022-11-14T23:03:54.682Z,27.60
2022-11-14T23:06:41.650Z,27.00
2022-11-14T23:09:30.028Z,29.40
2022-11-14T23:12:17.033Z,32.30
2022-11-14T23:15:04.264Z,29.10
2022-11-14T23:17:51.777Z,26.20
2022-11-14T23:20:47.149Z,26.40
2022-11-14T23:23:34.699Z,30.00
2022-11-14T23:26:21.583Z,27.60
2022-11-14T23:29:12.884Z,30.80
2022-11-14T23:31:59.779Z,28.90
2022-11-14T23:34:46.660Z,28.20
2022-11-14T23:37:33.642Z,31.40
2022-11-14T23:40:20.546Z,23.00
2022-11-14T23:43:07.433Z,28.90
2022-11-14T23:45:54.222Z,25.30
2022-11-14T23:48:40.855Z,29.50
2022-11-14T23:51:27.789Z,23.90
2022-11-14T23:54:14.391Z,24.00
2022-11-14T23:57:04.374Z,31.10
2022-11-14T23:59:51.767Z,20.50
